Time;durP1;ratioP1;P1;durP2;ratioP2;P2;SDS_P1;SDS_P2;PMS_P1;PMS_P2;Temp;Humidity;BMP_temperature;BMP_pressure;BME280_temperature;BME280_humidity;BME280_pressure;Samples;Min_cycle;Max_cycle;Signal;HPM_P1;HPM_P2
2022/04/03 00:01:39;;;;;;;13.50;8.10;;;;;;;3.71;81.23;95954.39;110113;1247;59750;-62
2022/04/03 00:04:09;;;;;;;11.10;7.30;;;;;;;3.69;81.29;95958.33;110068;1247;59740;-64
2022/04/03 00:06:39;;;;;;;13.20;8.90;;;;;;;3.65;81.43;95960.67;110063;1247;71351;-61
2022/04/03 00:09:09;;;;;;;14.40;9.30;;;;;;;3.64;81.36;95964.39;110005;1247;68456;-60
2022/04/03 00:11:40;;;;;;;11.30;7.00;;;;;;;3.63;81.82;95959.15;110045;1247;69436;-61
2022/04/03 00:14:10;;;;;;;15.30;8.70;;;;;;;3.62;82.10;95959.30;109953;1248;59750;-61
2022/04/03 00:16:40;;;;;;;13.20;8.00;;;;;;;3.61;82.48;95964.06;110028;1247;59701;-61
2022/04/03 00:19:10;;;;;;;12.40;7.50;;;;;;;3.62;82.56;95962.80;110081;1248;70521;-61
2022/04/03 00:21:40;;;;;;;11.50;7.50;;;;;;;3.60;82.38;95961.20;110098;1247;69335;-61
2022/04/03 00:24:10;;;;;;;14.10;8.30;;;;;;;3.57;82.03;95962.97;110056;1248;67601;-60
2022/04/03 00:26:41;;;;;;;13.10;8.80;;;;;;;3.55;81.32;95957.18;110068;1247;59757;-62
2022/04/03 00:29:12;;;;;;;11.70;7.30;;;;;;;3.54;79.75;95954.38;110124;1247;59687;-67
2022/04/03 00:31:43;;;;;;;12.20;7.60;;;;;;;3.53;80.60;95955.10;110071;1247;71565;-61
2022/04/03 00:34:13;;;;;;;12.70;7.90;;;;;;;3.53;80.57;95955.45;109829;1248;68697;-61
2022/04/03 00:36:44;;;;;;;12.20;8.10;;;;;;;3.47;80.37;95956.19;110057;1247;68909;-63
2022/04/03 00:39:14;;;;;;;11.00;8.00;;;;;;;3.45;80.39;95953.80;110053;1247;59746;-62
2022/04/03 00:41:45;;;;;;;11.50;7.10;;;;;;;3.44;80.46;95951.95;110026;1247;59625;-62
2022/04/03 00:44:16;;;;;;;;;;;;;;;3.42;80.11;95952.61;110051;1248;70795;-62
2022/04/03 00:46:47;;;;;;;12.60;7.40;;;;;;;3.39;80.82;95952.43;110068;1246;68463;-62
2022/04/03 00:49:17;;;;;;;13.80;8.70;;;;;;;3.39;80.93;95954.85;110087;1247;67615;-68
2022/04/03 00:51:47;;;;;;;13.70;7.80;;;;;;;3.39;80.73;95954.52;110063;1247;59686;-64
2022/04/03 00:54:19;;;;;;;11.80;7.90;;;;;;;3.36;81.11;95954.38;110013;1247;59712;-61
2022/04/03 00:56:51;;;;;;;14.30;8.60;;;;;;;3.30;81.44;95950.98;110020;1247;71527;-62
2022/04/03 00:59:22;;;;;;;14.10;9.10;;;;;;;3.28;81.57;95956.80;110027;1247;68486;-61
2022/04/03 01:01:53;;;;;;;11.70;6.80;;;;;;;3.26;81.73;95957.42;110000;1247;68479;-70
2022/04/03 01:04:23;;;;;;;14.60;9.40;;;;;;;3.27;82.08;95954.48;110056;1247;59751;-62
2022/04/03 01:06:53;;;;;;;13.60;7.80;;;;;;;3.26;82.39;95955.92;110092;1247;59725;-62
2022/04/03 01:09:23;;;;;;;;;;;;;;;3.26;82.50;95958.13;110078;1247;70571;-63
2022/04/03 01:11:53;;;;;;;9.30;6.00;;;;;;;3.25;83.09;95963.05;110078;1247;68626;-62
2022/04/03 01:14:36;;;;;;;8.30;5.10;;;;;;;3.25;83.04;95965.60;110022;1247;68553;-63
2022/04/03 01:17:07;;;;;;;7.00;4.60;;;;;;;3.25;83.40;95965.80;110078;1247;59732;-63
2022/04/03 01:19:38;;;;;;;7.90;4.90;;;;;;;3.28;83.06;95968.66;110093;1247;59744;-60
2022/04/03 01:22:09;;;;;;;5.60;3.60;;;;;;;3.30;82.85;95968.70;110058;1247;71630;-60
2022/04/03 01:24:43;;;;;;;6.50;4.90;;;;;;;3.31;83.38;95966.60;110141;1247;69405;-61
2022/04/03 01:27:14;;;;;;;6.40;4.00;;;;;;;3.29;84.10;95966.70;110072;1247;68427;-62
2022/04/03 01:29:48;;;;;;;6.40;3.90;;;;;;;3.26;84.72;95964.15;110099;1247;59653;-62
2022/04/03 01:32:20;;;;;;;5.20;3.80;;;;;;;3.21;85.04;95971.55;110074;1247;59750;-60
2022/04/03 01:34:50;;;;;;;5.80;4.00;;;;;;;3.11;85.43;95974.83;110065;1247;71551;-68
2022/04/03 01:37:21;;;;;;;5.80;4.10;;;;;;;3.08;85.85;95977.58;110064;1245;68636;-61
2022/04/03 01:39:51;;;;;;;6.70;4.80;;;;;;;3.01;86.66;95981.13;110049;1247;68463;-62
2022/04/03 01:42:23;;;;;;;6.20;4.50;;;;;;;2.94;87.29;95986.26;110083;1247;59652;-64
2022/04/03 01:44:54;;;;;;;8.00;5.10;;;;;;;2.83;88.26;95984.20;110074;1247;59756;-61
2022/04/03 01:47:26;;;;;;;5.10;4.10;;;;;;;2.74;88.99;95982.53;110046;1247;70785;-61
2022/04/03 01:49:56;;;;;;;5.30;3.80;;;;;;;2.66;89.28;95984.25;110042;1247;69383;-60
2022/04/03 01:52:27;;;;;;;6.40;4.10;;;;;;;2.59;88.33;95984.55;110034;1247;69216;-61
2022/04/03 01:54:59;;;;;;;;;;;;;;;2.47;87.62;95984.63;109915;1251;59766;-61
2022/04/03 01:57:30;;;;;;;5.00;3.30;;;;;;;2.37;88.56;95985.91;110027;1247;59774;-62
2022/04/03 02:00:00;;;;;;;4.90;3.50;;;;;;;2.33;89.23;95985.31;110056;1247;71170;-61
2022/04/03 02:02:33;;;;;;;6.60;4.40;;;;;;;2.29;89.30;95986.74;110093;1247;68541;-61
2022/04/03 02:05:05;;;;;;;4.70;3.00;;;;;;;2.25;89.44;95992.19;110106;1247;69397;-61
2022/04/03 02:07:35;;;;;;;4.50;3.20;;;;;;;2.21;89.90;95994.50;110099;1247;59741;-62
2022/04/03 02:10:09;;;;;;;5.90;3.40;;;;;;;2.16;90.37;95999.60;110045;1247;59996;-62
2022/04/03 02:12:40;;;;;;;3.60;2.70;;;;;;;2.07;90.34;96002.95;110099;1247;71502;-63
2022/04/03 02:15:12;;;;;;;3.70;2.80;;;;;;;1.95;88.88;96004.64;110130;1247;69369;-60
2022/04/03 02:17:42;;;;;;;2.90;2.30;;;;;;;1.93;89.00;96005.34;110051;1246;68723;-60
2022/04/03 02:20:13;;;;;;;3.00;2.20;;;;;;;1.84;88.37;96006.89;110091;1247;59772;-60
2022/04/03 02:22:43;;;;;;;2.40;2.00;;;;;;;1.88;87.86;96009.55;110133;1247;59748;-63
2022/04/03 02:25:14;;;;;;;2.60;1.70;;;;;;;1.89;87.54;96011.08;110080;1247;70623;-62
2022/04/03 02:27:47;;;;;;;2.80;2.10;;;;;;;1.89;87.34;96011.05;110100;1247;68450;-62
2022/04/03 02:30:17;;;;;;;2.90;2.20;;;;;;;1.90;87.02;96011.19;110001;1247;68480;-65
2022/04/03 02:32:47;;;;;;;2.80;2.10;;;;;;;1.89;86.94;96010.87;110066;1247;59690;-63
2022/04/03 02:35:18;;;;;;;;;;;;;;;1.89;86.85;96006.60;110095;1247;59721;-63
2022/04/03 02:37:48;;;;;;;2.40;2.10;;;;;;;1.88;87.12;96009.77;110085;1247;71621;-61
2022/04/03 02:40:17;;;;;;;2.90;2.40;;;;;;;1.88;86.78;96014.40;109950;1248;69415;-63
2022/04/03 02:42:47;;;;;;;4.30;2.80;;;;;;;1.87;86.84;96016.16;110058;1247;68658;-62
2022/04/03 02:45:17;;;;;;;3.00;2.10;;;;;;;1.86;87.21;96016.41;110107;1247;59706;-61
2022/04/03 02:47:55;;;;;;;3.80;2.70;;;;;;;1.83;87.14;96022.92;110049;1247;59687;-63
2022/04/03 02:50:26;;;;;;;4.40;3.20;;;;;;;1.79;87.71;96020.95;110082;1247;71492;-65
2022/04/03 02:52:56;;;;;;;3.30;2.60;;;;;;;1.75;87.39;96021.16;110115;1247;68645;-61
2022/04/03 02:55:26;;;;;;;;;;;;;;;1.71;87.10;96023.97;110047;1247;69413;-62
2022/04/03 02:57:56;;;;;;;3.70;2.50;;;;;;;1.65;87.64;96023.46;110012;1247;59753;-63
2022/04/03 03:00:27;;;;;;;3.90;2.50;;;;;;;1.62;87.79;96021.95;110069;1247;59692;-61
2022/04/03 03:02:57;;;;;;;4.70;2.90;;;;;;;1.60;87.94;96022.79;110009;1247;70980;-60
2022/04/03 03:05:27;;;;;;;5.00;3.30;;;;;;;1.58;87.78;96023.58;110075;1247;68459;-61
2022/04/03 03:07:57;;;;;;;;;;;;;;;1.51;88.09;96025.84;110055;1247;68653;-61
2022/04/03 03:10:27;;;;;;;6.30;3.50;;;;;;;1.47;88.29;96025.05;110076;1247;59675;-60
2022/04/03 03:12:57;;;;;;;6.50;3.90;;;;;;;1.43;88.56;96028.20;110053;1247;59720;-61
2022/04/03 03:15:28;;;;;;;5.80;3.60;;;;;;;1.40;89.10;96029.77;110062;1247;71502;-61
2022/04/03 03:17:58;;;;;;;5.80;4.00;;;;;;;1.39;89.74;96027.45;110049;1247;69411;-61
2022/04/03 03:20:28;;;;;;;5.70;3.80;;;;;;;1.39;89.59;96022.47;110091;1247;69402;-61
2022/04/03 03:23:00;;;;;;;5.60;3.40;;;;;;;1.37;89.37;96026.66;110071;1246;59738;-62
2022/04/03 03:25:30;;;;;;;6.40;3.30;;;;;;;1.38;89.87;96022.48;110088;1247;59688;-62
2022/04/03 03:28:00;;;;;;;5.40;3.80;;;;;;;1.38;89.74;96020.23;110100;1247;71555;-62
2022/04/03 03:30:31;;;;;;;6.20;3.50;;;;;;;1.39;89.91;96021.78;110038;1247;68404;-62
2022/04/03 03:33:01;;;;;;;8.10;3.80;;;;;;;1.41;90.01;96025.42;110014;1247;69402;-61
2022/04/03 03:35:33;;;;;;;6.40;4.40;;;;;;;1.40;89.96;96028.91;110040;1247;59747;-62
2022/04/03 03:38:03;;;;;;;5.00;3.30;;;;;;;1.40;89.98;96030.83;110033;1247;59655;-62
2022/04/03 03:40:38;;;;;;;4.50;3.20;;;;;;;1.41;90.31;96035.17;109955;1247;70745;-61
2022/04/03 03:43:09;;;;;;;5.60;3.50;;;;;;;1.42;90.18;96036.15;109956;1248;68675;-61
2022/04/03 03:45:39;;;;;;;5.80;3.40;;;;;;;1.40;90.36;96037.32;110057;1246;69512;-61
2022/04/03 03:48:12;;;;;;;5.00;3.50;;;;;;;1.39;90.24;96036.20;110016;1247;60047;-61
2022/04/03 03:50:43;;;;;;;7.70;4.50;;;;;;;1.38;89.66;96038.66;110037;1247;59654;-61
2022/04/03 03:53:13;;;;;;;6.40;4.40;;;;;;;1.38;88.90;96039.70;110044;1247;71588;-61
2022/04/03 03:55:43;;;;;;;6.90;4.70;;;;;;;1.42;87.68;96042.35;110034;1247;69380;-61
2022/04/03 03:58:14;;;;;;;9.00;5.80;;;;;;;1.48;86.41;96044.20;110031;1247;68996;-60
2022/04/03 04:00:45;;;;;;;7.60;4.90;;;;;;;1.54;85.50;96046.15;110014;1247;59789;-61
2022/04/03 04:03:15;;;;;;;8.10;6.30;;;;;;;1.56;84.38;96046.52;110011;1247;59659;-62
2022/04/03 04:05:45;;;;;;;7.60;4.50;;;;;;;1.58;83.90;96048.80;110027;1247;71537;-61
2022/04/03 04:08:14;;;;;;;9.90;5.40;;;;;;;1.57;83.98;96050.77;110077;1247;69243;-60
2022/04/03 04:10:45;;;;;;;7.90;5.60;;;;;;;1.59;83.81;96049.46;110098;1247;69470;-61
2022/04/03 04:13:15;;;;;;;9.20;5.70;;;;;;;1.62;83.43;96053.08;110076;1247;59771;-61
2022/04/03 04:15:44;;;;;;;8.30;5.50;;;;;;;1.62;83.44;96053.08;110075;1247;59616;-62
2022/04/03 04:18:14;;;;;;;7.50;4.90;;;;;;;1.59;84.14;96056.85;110081;1246;71608;-64
2022/04/03 04:20:45;;;;;;;7.70;5.60;;;;;;;1.60;84.14;96059.48;109999;1247;69679;-64
2022/04/03 04:23:14;;;;;;;8.70;6.10;;;;;;;1.60;84.82;96063.82;110046;1246;69296;-64
2022/04/03 04:25:44;;;;;;;8.80;5.70;;;;;;;1.59;84.73;96063.90;110074;1247;59747;-64
2022/04/03 04:28:15;;;;;;;10.50;5.80;;;;;;;1.59;85.31;96064.91;109765;1248;59721;-62
2022/04/03 04:30:45;;;;;;;8.90;6.00;;;;;;;1.58;84.69;96067.05;110032;1247;70940;-62
2022/04/03 04:33:14;;;;;;;8.50;5.60;;;;;;;1.60;84.36;96071.20;110079;1247;69233;-61
2022/04/03 04:35:44;;;;;;;8.80;5.70;;;;;;;1.62;83.87;96074.71;109985;1247;68632;-62
2022/04/03 04:38:14;;;;;;;7.50;4.90;;;;;;;1.62;83.73;96076.25;109999;1247;59707;-60
2022/04/03 04:40:44;;;;;;;9.50;4.30;;;;;;;1.56;83.64;96080.70;110022;1247;60022;-62
2022/04/03 04:43:14;;;;;;;8.90;6.40;;;;;;;1.55;83.51;96083.49;110061;1247;70622;-62
2022/04/03 04:45:44;;;;;;;6.80;4.40;;;;;;;1.57;83.12;96084.96;110072;1247;69275;-66
2022/04/03 04:48:13;;;;;;;7.70;5.20;;;;;;;1.57;83.33;96086.50;110025;1247;68756;-62
2022/04/03 04:50:43;;;;;;;8.80;5.80;;;;;;;1.54;83.66;96091.27;110032;1247;60125;-61
2022/04/03 04:53:15;;;;;;;8.70;4.80;;;;;;;1.48;83.07;96093.52;110068;1247;59745;-60
2022/04/03 04:55:45;;;;;;;8.20;5.30;;;;;;;1.45;82.74;96092.46;110098;1246;71520;-62
2022/04/03 04:58:14;;;;;;;8.70;5.20;;;;;;;1.42;82.72;96095.05;109853;1247;69393;-67
2022/04/03 05:00:44;;;;;;;8.90;5.80;;;;;;;1.36;83.78;96100.71;110023;1247;69515;-62
2022/04/03 05:03:14;;;;;;;6.90;5.10;;;;;;;1.35;83.73;96098.06;110035;1247;59744;-60
2022/04/03 05:05:44;;;;;;;8.80;5.00;;;;;;;1.32;84.23;96102.68;110013;1247;59737;-63
2022/04/03 05:08:13;;;;;;;9.10;5.70;;;;;;;1.27;84.10;96106.39;110068;1247;70764;-63
2022/04/03 05:10:43;;;;;;;7.40;4.60;;;;;;;1.22;84.54;96111.16;110032;1247;69431;-67
2022/04/03 05:13:16;;;;;;;7.80;5.50;;;;;;;1.20;85.11;96116.89;110032;1247;68731;-65
2022/04/03 05:15:45;;;;;;;8.60;5.80;;;;;;;1.17;84.99;96118.30;109820;1248;59730;-61
2022/04/03 05:18:14;;;;;;;7.70;5.00;;;;;;;1.18;85.12;96122.18;110085;1247;59760;-63
2022/04/03 05:20:46;;;;;;;9.50;5.90;;;;;;;1.19;85.75;96119.35;110061;1247;70778;-60
2022/04/03 05:23:15;;;;;;;9.20;5.70;;;;;;;1.20;86.42;96125.13;110050;1246;68654;-62
2022/04/03 05:25:44;;;;;;;9.30;5.70;;;;;;;1.19;86.52;96127.95;110027;1247;69438;-61
2022/04/03 05:28:14;;;;;;;9.60;4.90;;;;;;;1.19;86.58;96127.92;110031;1247;60109;-61
2022/04/03 05:30:43;;;;;;;8.70;5.70;;;;;;;1.15;86.21;96128.34;110099;1247;59700;-61
2022/04/03 05:33:14;;;;;;;8.70;5.90;;;;;;;1.16;86.45;96129.14;110057;1247;70818;-63
2022/04/03 05:35:44;;;;;;;8.20;5.30;;;;;;;1.18;85.86;96131.43;110091;1247;69476;-61
2022/04/03 05:38:13;;;;;;;11.40;7.40;;;;;;;1.18;85.95;96131.29;110051;1247;69206;-63
2022/04/03 05:40:43;;;;;;;9.30;5.80;;;;;;;1.18;86.11;96134.15;110049;1247;59605;-64
2022/04/03 05:43:12;;;;;;;11.90;6.70;;;;;;;1.18;85.35;96135.77;110111;1247;59731;-61
2022/04/03 05:45:42;;;;;;;9.30;7.00;;;;;;;1.18;85.63;96138.98;110094;1247;71615;-66
2022/04/03 05:48:12;;;;;;;9.70;6.80;;;;;;;1.20;86.43;96140.59;109839;1247;67790;-69
2022/04/03 05:50:42;;;;;;;8.60;5.60;;;;;;;1.22;85.78;96141.69;110084;1247;69676;-63
2022/04/03 05:53:11;;;;;;;10.50;6.80;;;;;;;1.21;85.07;96145.16;110051;1247;59728;-62
2022/04/03 05:55:40;;;;;;;11.10;7.80;;;;;;;1.23;85.39;96149.01;110079;1247;59652;-62
2022/04/03 05:58:09;;;;;;;10.90;6.60;;;;;;;1.20;85.10;96152.98;110105;1247;72178;-62
2022/04/03 06:00:39;;;;;;;9.60;6.10;;;;;;;1.12;85.36;96154.06;110146;1246;69532;-61
2022/04/03 06:03:08;;;;;;;12.80;7.90;;;;;;;1.09;86.00;96155.98;110170;1246;68760;-61
2022/04/03 06:05:40;;;;;;;15.20;8.30;;;;;;;1.11;85.12;96155.69;110071;1247;59748;-62
2022/04/03 06:08:09;;;;;;;12.30;7.50;;;;;;;1.02;85.75;96161.83;110092;1247;59750;-61
2022/04/03 06:10:39;;;;;;;14.90;8.50;;;;;;;1.02;86.17;96163.88;110096;1247;71648;-62
2022/04/03 06:13:12;;;;;;;12.80;7.90;;;;;;;1.02;86.16;96165.63;110109;1247;69279;-62
2022/04/03 06:15:45;;;;;;;16.10;9.40;;;;;;;0.99;86.41;96169.55;110069;1247;68661;-61
2022/04/03 06:18:16;;;;;;;13.70;8.80;;;;;;;1.00;85.98;96170.49;110168;1247;59750;-62
2022/04/03 06:20:47;;;;;;;14.30;8.00;;;;;;;1.03;85.64;96173.27;110126;1247;59751;-62
2022/04/03 06:23:18;;;;;;;12.50;7.60;;;;;;;1.04;85.93;96180.98;110054;1247;70774;-62
2022/04/03 06:25:53;;;;;;;13.00;8.10;;;;;;;1.06;86.13;96182.06;109427;1247;685051;-64
2022/04/03 06:28:25;;;;;;;10.30;7.00;;;;;;;1.08;85.40;96182.77;110073;1247;69385;-61
2022/04/03 06:30:59;;;;;;;12.50;7.30;;;;;;;1.12;86.06;96185.49;110011;1247;59680;-62
2022/04/03 06:33:28;;;;;;;12.50;6.60;;;;;;;1.16;85.76;96185.92;110083;1245;59737;-62
2022/04/03 06:36:00;;;;;;;14.20;9.60;;;;;;;1.18;85.76;96184.48;110047;1247;72028;-62
2022/04/03 06:38:30;;;;;;;13.70;7.50;;;;;;;1.24;84.93;96188.92;110043;1247;69857;-63
2022/04/03 06:40:59;;;;;;;16.00;9.20;;;;;;;1.25;83.47;96189.56;109985;1246;68635;-71
2022/04/03 06:43:30;;;;;;;15.40;9.30;;;;;;;1.34;82.88;96197.15;110047;1247;59691;-63
2022/04/03 06:46:00;;;;;;;17.70;10.50;;;;;;;1.33;82.33;96199.98;110110;1247;59656;-70
2022/04/03 06:48:30;;;;;;;13.10;7.90;;;;;;;1.30;83.25;96202.32;110038;1247;71545;-67
2022/04/03 06:51:00;;;;;;;15.40;9.50;;;;;;;1.25;83.88;96207.92;109900;1247;69216;-60
2022/04/03 06:53:29;;;;;;;18.20;9.40;;;;;;;1.24;84.23;96212.95;110020;1247;68471;-62
2022/04/03 06:55:58;;;;;;;14.60;9.10;;;;;;;1.28;84.13;96215.17;109857;1247;59688;-61
2022/04/03 06:58:28;;;;;;;17.60;11.40;;;;;;;1.28;83.84;96220.27;110083;1245;59675;-60
2022/04/03 07:00:57;;;;;;;19.00;9.10;;;;;;;1.25;83.96;96221.98;109978;1247;71502;-62
2022/04/03 07:03:27;;;;;;;14.40;8.20;;;;;;;1.28;84.10;96223.55;110062;1247;69868;-60
2022/04/03 07:05:57;;;;;;;;;;;;;;;1.22;83.64;96231.45;110033;1247;68883;-61
2022/04/03 07:08:28;;;;;;;14.50;8.60;;;;;;;1.17;84.08;96229.14;110062;1247;59611;-61
2022/04/03 07:10:57;;;;;;;17.20;10.00;;;;;;;1.14;84.35;96236.52;110030;1247;59682;-61
2022/04/03 07:13:26;;;;;;;17.40;9.20;;;;;;;1.13;84.78;96236.05;110045;1247;72113;-62
2022/04/03 07:15:55;;;;;;;17.10;9.60;;;;;;;1.12;85.08;96241.95;110083;1247;68662;-62
2022/04/03 07:18:24;;;;;;;17.60;10.70;;;;;;;1.08;85.22;96247.63;110026;1247;67741;-62
2022/04/03 07:20:53;;;;;;;17.60;9.40;;;;;;;1.02;85.66;96253.27;110049;1246;59748;-63
2022/04/03 07:23:25;;;;;;;15.20;8.30;;;;;;;0.97;85.83;96253.56;110065;1247;59676;-62
2022/04/03 07:25:54;;;;;;;19.80;11.50;;;;;;;0.96;86.37;96257.55;110036;1247;72611;-62
2022/04/03 07:28:23;;;;;;;12.00;7.40;;;;;;;0.94;86.51;96262.25;110095;1247;69447;-64
2022/04/03 07:30:52;;;;;;;17.80;11.50;;;;;;;0.92;86.64;96262.38;110009;1247;68956;-67
2022/04/03 07:33:21;;;;;;;14.50;7.50;;;;;;;0.83;86.88;96267.81;110032;1247;59751;-69
2022/04/03 07:35:51;;;;;;;16.50;11.60;;;;;;;0.80;87.24;96270.73;109897;1248;59639;-68
2022/04/03 07:38:21;;;;;;;16.80;8.10;;;;;;;0.80;87.10;96274.14;110105;1247;72094;-64
2022/04/03 07:40:50;;;;;;;12.30;7.10;;;;;;;0.65;87.82;96281.98;110048;1247;69273;-64
2022/04/03 07:43:23;;;;;;;14.20;7.80;;;;;;;0.63;87.96;96286.03;109998;1247;68698;-63
2022/04/03 07:45:52;;;;;;;14.70;8.10;;;;;;;0.61;88.70;96287.13;110053;1247;59835;-65
2022/04/03 07:48:22;;;;;;;13.60;8.00;;;;;;;0.60;88.88;96291.64;110058;1247;59673;-62
2022/04/03 07:50:52;;;;;;;11.40;7.40;;;;;;;0.62;88.59;96295.14;109984;1248;72075;-62
2022/04/03 07:53:21;;;;;;;9.80;6.50;;;;;;;0.62;88.63;96298.05;110027;1247;69006;-60
2022/04/03 07:55:50;;;;;;;11.20;6.70;;;;;;;0.52;88.95;96305.45;110025;1247;69493;-61
2022/04/03 07:58:19;;;;;;;10.90;6.10;;;;;;;0.46;89.22;96309.50;110069;1247;59726;-61
2022/04/03 08:00:49;;;;;;;10.00;6.30;;;;;;;0.45;89.06;96315.56;110056;1247;59683;-60
2022/04/03 08:03:18;;;;;;;10.30;6.70;;;;;;;0.39;89.31;96320.50;110051;1247;70836;-68
2022/04/03 08:05:48;;;;;;;11.00;6.20;;;;;;;0.44;89.00;96320.73;110040;1247;69358;-62
2022/04/03 08:08:17;;;;;;;13.00;8.40;;;;;;;0.51;88.74;96324.70;110042;1247;68497;-62
2022/04/03 08:10:47;;;;;;;12.90;7.20;;;;;;;0.46;88.63;96328.36;110035;1247;59784;-61
2022/04/03 08:13:17;;;;;;;13.40;8.00;;;;;;;0.53;88.73;96326.98;110084;1247;59701;-63
2022/04/03 08:15:47;;;;;;;9.40;5.90;;;;;;;0.64;88.51;96330.75;110084;1247;71594;-61
2022/04/03 08:18:17;;;;;;;12.60;8.10;;;;;;;0.72;87.89;96330.98;110133;1247;69167;-60
2022/04/03 08:20:51;;;;;;;9.60;6.50;;;;;;;0.81;88.13;96335.02;110065;1247;69466;-60
2022/04/03 08:23:20;;;;;;;9.20;6.00;;;;;;;0.93;87.76;96336.76;110101;1247;59685;-63
2022/04/03 08:25:49;;;;;;;7.10;4.60;;;;;;;1.04;87.48;96337.76;110092;1247;59647;-62
2022/04/03 08:28:19;;;;;;;8.90;5.80;;;;;;;1.12;87.39;96339.56;110084;1247;71320;-63
2022/04/03 08:30:49;;;;;;;9.20;5.90;;;;;;;1.18;86.98;96345.42;110039;1247;70195;-63
2022/04/03 08:33:18;;;;;;;10.80;7.40;;;;;;;1.23;86.45;96344.13;110104;1247;69497;-61
2022/04/03 08:35:50;;;;;;;13.20;8.70;;;;;;;1.27;86.48;96346.86;110039;1247;59686;-61
2022/04/03 08:38:20;;;;;;;10.30;7.40;;;;;;;1.31;86.38;96351.95;110096;1247;59695;-61
2022/04/03 08:40:49;;;;;;;10.40;6.90;;;;;;;1.35;86.62;96353.48;110087;1247;70764;-61
2022/04/03 08:43:19;;;;;;;7.10;5.30;;;;;;;1.39;86.26;96358.45;110024;1247;68952;-65
2022/04/03 08:45:51;;;;;;;8.10;5.60;;;;;;;1.40;86.20;96358.20;109992;1247;70067;-69
2022/04/03 08:48:21;;;;;;;10.40;7.30;;;;;;;1.42;85.81;96364.41;109902;1247;59770;-68
2022/04/03 08:50:55;;;;;;;7.60;5.90;;;;;;;1.43;85.69;96364.38;110057;1245;59680;-67
2022/04/03 08:53:26;;;;;;;9.30;5.70;;;;;;;1.43;85.66;96374.52;110034;1246;70638;-64
2022/04/03 08:55:55;;;;;;;9.20;5.30;;;;;;;1.47;85.61;96375.35;110088;1247;69489;-64
2022/04/03 08:58:24;;;;;;;6.80;5.30;;;;;;;1.53;85.57;96377.23;110078;1247;68642;-64
2022/04/03 09:00:56;;;;;;;9.50;6.70;;;;;;;1.60;85.55;96377.20;110035;1247;59753;-61
2022/04/03 09:03:25;;;;;;;6.60;4.30;;;;;;;1.67;85.61;96382.68;110061;1247;59691;-67
2022/04/03 09:06:20;;;;;;;9.60;6.90;;;;;;;1.75;85.31;96387.03;110023;1247;71010;-67
2022/04/03 09:08:49;;;;;;;14.10;10.40;;;;;;;1.81;85.37;96388.13;110061;1247;69513;-66
2022/04/03 09:11:19;;;;;;;22.20;17.80;;;;;;;1.83;85.59;96394.05;110063;1247;70014;-71
2022/04/03 09:13:48;;;;;;;26.90;24.10;;;;;;;1.79;84.72;96397.66;110017;1247;60048;-62
2022/04/03 09:16:17;;;;;;;25.40;16.60;;;;;;;1.81;84.78;96397.23;110107;1247;59662;-60
2022/04/03 09:18:52;;;;;;;17.10;11.60;;;;;;;1.78;84.74;96398.40;110097;1247;71522;-62
2022/04/03 09:21:25;;;;;;;12.10;7.70;;;;;;;1.65;85.39;96404.95;110089;1247;67959;-61
2022/04/03 09:24:08;;;;;;;23.50;13.10;;;;;;;1.58;85.01;96410.98;110052;1247;69763;-70
2022/04/03 09:26:42;;;;;;;22.10;12.10;;;;;;;1.50;84.91;96417.55;110124;1247;59803;-67
2022/04/03 09:29:17;;;;;;;10.50;5.70;;;;;;;1.38;84.83;96420.09;110046;1247;59693;-64
2022/04/03 09:31:47;;;;;;;14.10;7.40;;;;;;;1.33;84.83;96419.52;110127;1247;71227;-62
2022/04/03 09:34:18;;;;;;;7.70;5.50;;;;;;;1.23;84.69;96424.16;110039;1247;70025;-67
2022/04/03 09:37:05;;;;;;;10.60;6.50;;;;;;;1.15;84.85;96427.63;110060;1247;69537;-71
2022/04/03 09:39:34;;;;;;;8.10;5.60;;;;;;;1.09;85.04;96428.12;110035;1247;59744;-63
2022/04/03 09:42:11;;;;;;;5.80;4.30;;;;;;;0.92;85.93;96425.67;110072;1247;59736;-66
2022/04/03 09:44:43;;;;;;;10.90;6.80;;;;;;;0.91;85.86;96428.16;110011;1247;71634;-61
2022/04/03 09:47:30;;;;;;;8.00;5.40;;;;;;;0.91;85.75;96429.55;110060;1247;68667;-60
2022/04/03 09:50:06;;;;;;;9.10;5.50;;;;;;;0.90;85.66;96432.65;110039;1247;69244;-61
2022/04/03 09:52:35;;;;;;;13.10;7.90;;;;;;;0.91;85.62;96430.71;110084;1247;59665;-63
2022/04/03 09:55:13;;;;;;;19.30;10.80;;;;;;;0.93;85.99;96435.61;110053;1246;59733;-68
2022/04/03 09:57:45;;;;;;;56.40;23.10;;;;;;;0.97;85.38;96436.77;109869;1245;70124;-66
2022/04/03 10:00:37;;;;;;;;;;;;;;;1.00;85.14;96444.52;110073;1247;67550;-66
2022/04/03 10:03:10;;;;;;;44.70;19.60;;;;;;;1.02;85.10;96447.17;110100;1247;69506;-63
2022/04/03 10:05:42;;;;;;;27.10;12.90;;;;;;;1.08;84.98;96452.55;109917;1247;59822;-65
2022/04/03 10:08:12;;;;;;;18.50;9.80;;;;;;;1.11;85.37;96453.42;110095;1247;59801;-60
2022/04/03 10:10:41;;;;;;;10.30;7.10;;;;;;;1.15;85.39;96456.31;109932;1247;72295;-66
2022/04/03 10:13:10;;;;;;;9.50;6.80;;;;;;;1.19;85.10;96457.98;109891;1247;68500;-67
2022/04/03 10:15:40;;;;;;;8.80;6.40;;;;;;;1.24;85.01;96460.84;110045;1247;68788;-70
2022/04/03 10:18:09;;;;;;;6.80;5.70;;;;;;;1.31;84.81;96466.31;110071;1247;59697;-71
2022/04/03 10:20:38;;;;;;;7.30;6.20;;;;;;;1.39;84.76;96469.86;110118;1247;59710;-70
2022/04/03 10:23:11;;;;;;;11.20;9.00;;;;;;;1.49;84.68;96476.17;110067;1247;71789;-71
2022/04/03 10:25:47;;;;;;;10.30;8.60;;;;;;;1.61;84.44;96476.44;110104;1247;69390;-69
2022/04/03 10:28:21;;;;;;;15.20;12.60;;;;;;;1.72;84.13;96480.52;110187;1247;68806;-63
2022/04/03 10:31:06;;;;;;;10.20;8.20;;;;;;;1.80;83.93;96483.55;110022;1247;59764;-65
2022/04/03 10:33:38;;;;;;;13.40;10.50;;;;;;;1.84;83.33;96486.58;110041;1247;59691;-61
2022/04/03 10:36:11;;;;;;;6.90;5.90;;;;;;;1.80;82.77;96482.80;109772;1247;71467;-68
2022/04/03 10:39:03;;;;;;;8.10;6.10;;;;;;;1.87;82.50;96487.11;110052;1247;69438;-60
2022/04/03 10:41:39;;;;;;;12.80;7.90;;;;;;;1.98;82.79;96486.86;110042;1247;69584;-62
2022/04/03 10:44:21;;;;;;;7.20;5.10;;;;;;;2.08;82.97;96491.48;110068;1247;59750;-61
2022/04/03 10:47:04;;;;;;;6.20;4.20;;;;;;;2.27;82.64;96490.98;110017;1247;59634;-60
2022/04/03 10:50:00;;;;;;;6.20;4.90;;;;;;;2.29;81.47;96495.85;110053;1246;70950;-62
2022/04/03 10:52:38;;;;;;;7.00;5.40;;;;;;;2.38;81.20;96498.97;110032;1247;69454;-70
2022/04/03 10:55:22;;;;;;;5.30;4.60;;;;;;;2.42;81.09;96504.09;110075;1247;69413;-65
2022/04/03 10:58:02;;;;;;;5.30;3.90;;;;;;;2.56;81.27;96507.23;110006;1247;59711;-72
2022/04/03 11:00:39;;;;;;;5.30;4.60;;;;;;;2.40;79.74;96505.21;110066;1247;59657;-69
2022/04/03 11:03:14;;;;;;;5.90;4.70;;;;;;;2.40;80.36;96509.55;110054;1247;70672;-69
2022/04/03 11:05:50;;;;;;;5.60;4.20;;;;;;;2.42;80.68;96512.99;110061;1247;68734;-72
2022/04/03 11:08:42;;;;;;;4.80;3.80;;;;;;;2.44;80.76;96518.26;110026;1247;69725;-68
2022/04/03 11:11:13;;;;;;;6.20;4.40;;;;;;;2.44;80.09;96521.30;110060;1247;59704;-70
2022/04/03 11:13:43;;;;;;;7.10;5.80;;;;;;;2.44;80.14;96519.64;110035;1247;59715;-68
2022/04/03 11:16:12;;;;;;;6.30;5.60;;;;;;;2.19;79.77;96525.06;110068;1247;71813;-68
2022/04/03 11:18:41;;;;;;;6.40;5.60;;;;;;;2.08;80.54;96523.46;110059;1247;68263;-66
2022/04/03 11:21:26;;;;;;;7.00;5.30;;;;;;;2.16;81.17;96526.27;110068;1247;69537;-61
2022/04/03 11:24:09;;;;;;;6.00;4.50;;;;;;;2.20;81.09;96528.84;110037;1247;59701;-60
2022/04/03 11:26:40;;;;;;;6.00;4.90;;;;;;;2.35;81.07;96534.23;110028;1247;59746;-62
2022/04/03 11:29:11;;;;;;;6.70;5.10;;;;;;;2.08;81.17;96534.79;110050;1247;70771;-65
2022/04/03 11:31:40;;;;;;;6.60;4.80;;;;;;;2.04;81.34;96540.13;110043;1247;69977;-62
2022/04/03 11:34:12;;;;;;;8.20;5.20;;;;;;;2.04;81.78;96541.36;110034;1247;69417;-63
2022/04/03 11:36:42;;;;;;;7.00;5.60;;;;;;;1.95;81.72;96542.31;110059;1247;59678;-70
2022/04/03 11:39:11;;;;;;;8.00;5.70;;;;;;;1.86;82.42;96545.21;110071;1247;59630;-68
2022/04/03 11:41:51;;;;;;;5.70;4.80;;;;;;;2.07;83.05;96547.19;110099;1247;71652;-70
2022/04/03 11:44:20;;;;;;;7.30;5.00;;;;;;;2.24;82.68;96548.03;110065;1247;69438;-64
2022/04/03 11:46:49;;;;;;;7.80;6.00;;;;;;;2.30;81.49;96550.98;110034;1247;69492;-61
2022/04/03 11:49:22;;;;;;;8.10;6.70;;;;;;;2.20;80.56;96551.69;110053;1247;59692;-65
2022/04/03 11:52:06;;;;;;;7.30;6.10;;;;;;;2.04;81.03;96553.71;110026;1245;59672;-68